createdAt,value
2018-09-28T00:00:37.273Z,3.30
2018-09-28T00:03:06.949Z,3.20
2018-09-28T00:05:36.577Z,4.00
2018-09-28T00:08:06.226Z,3.43
2018-09-28T00:10:35.798Z,3.20
2018-09-28T00:13:05.417Z,4.40
2018-09-28T00:15:35.040Z,5.50
2018-09-28T00:18:04.617Z,2.50
2018-09-28T00:20:34.238Z,2.23
2018-09-28T00:23:03.766Z,2.30
2018-09-28T00:25:33.561Z,2.30
2018-09-28T00:28:03.389Z,1.97
2018-09-28T00:30:33.134Z,2.20
2018-09-28T00:33:02.839Z,2.27
2018-09-28T00:35:32.511Z,2.30
2018-09-28T00:38:02.064Z,2.10
2018-09-28T00:40:31.642Z,2.40
2018-09-28T00:43:01.283Z,2.20
2018-09-28T00:45:30.908Z,2.43
2018-09-28T00:48:00.523Z,2.40
2018-09-28T00:50:30.192Z,2.40
2018-09-28T00:52:59.787Z,2.33
2018-09-28T00:55:29.416Z,2.47
2018-09-28T00:57:59.021Z,2.30
2018-09-28T01:00:28.605Z,2.70
2018-09-28T01:02:58.197Z,2.30
2018-09-28T01:05:27.822Z,2.50
2018-09-28T01:07:57.432Z,2.60
2018-09-28T01:10:27.116Z,2.30
2018-09-28T01:12:56.716Z,2.90
2018-09-28T01:15:26.301Z,2.27
2018-09-28T01:17:55.872Z,2.70
2018-09-28T01:20:25.486Z,3.07
2018-09-28T01:22:55.154Z,3.07
2018-09-28T01:25:24.718Z,3.10
2018-09-28T01:27:54.377Z,2.63
2018-09-28T01:30:24.194Z,2.70
2018-09-28T01:32:53.696Z,2.60
2018-09-28T01:35:23.294Z,2.77
2018-09-28T01:37:52.881Z,2.83
2018-09-28T01:40:22.608Z,3.00
2018-09-28T01:42:52.217Z,5.43
2018-09-28T01:45:21.248Z,8.97
2018-09-28T01:47:50.858Z,7.60
2018-09-28T01:50:20.584Z,4.30
2018-09-28T01:52:50.174Z,3.93
2018-09-28T01:55:19.729Z,4.00
2018-09-28T01:57:49.399Z,3.70
2018-09-28T02:00:19.038Z,3.50
2018-09-28T02:02:48.553Z,3.50
2018-09-28T02:05:18.217Z,3.17
2018-09-28T02:07:47.800Z,3.57
2018-09-28T02:10:17.343Z,3.10
2018-09-28T02:12:46.974Z,3.17
2018-09-28T02:15:16.554Z,3.10
2018-09-28T02:17:46.146Z,3.53
2018-09-28T02:20:15.750Z,3.60
2018-09-28T02:22:45.336Z,4.20
2018-09-28T02:25:14.955Z,4.20
2018-09-28T02:27:44.553Z,3.10
2018-09-28T02:30:14.268Z,2.63
2018-09-28T02:32:43.910Z,2.50
2018-09-28T02:35:13.552Z,2.37
2018-09-28T02:37:43.150Z,2.50
2018-09-28T02:40:12.728Z,2.20
2018-09-28T02:42:42.383Z,2.33
2018-09-28T02:45:12.234Z,2.77
2018-09-28T02:47:42.090Z,2.33
2018-09-28T02:50:11.696Z,2.57
2018-09-28T02:52:41.322Z,2.43
2018-09-28T02:55:10.958Z,2.60
2018-09-28T02:57:40.606Z,2.60
2018-09-28T03:00:10.246Z,6.00
2018-09-28T03:02:39.805Z,4.50
2018-09-28T03:05:09.420Z,3.20
2018-09-28T03:07:39.061Z,3.20
2018-09-28T03:10:08.765Z,2.90
2018-09-28T03:12:38.428Z,2.30
2018-09-28T03:15:08.122Z,2.30
2018-09-28T03:17:37.677Z,2.27
2018-09-28T03:20:07.766Z,2.47
2018-09-28T03:22:37.600Z,2.40
2018-09-28T03:25:07.281Z,2.30
2018-09-28T03:27:36.845Z,2.60
2018-09-28T03:30:07.423Z,2.40
2018-09-28T03:32:36.981Z,2.70
2018-09-28T03:35:06.652Z,2.60
2018-09-28T03:37:37.275Z,2.60
2018-09-28T03:40:06.969Z,2.50
2018-09-28T03:42:37.703Z,2.37
2018-09-28T03:45:07.412Z,2.60
2018-09-28T03:47:37.469Z,2.80
2018-09-28T03:50:08.033Z,2.33
2018-09-28T03:52:38.018Z,2.50
2018-09-28T03:55:07.788Z,2.20
2018-09-28T03:57:37.527Z,2.50
2018-09-28T04:00:08.277Z,2.60
2018-09-28T04:02:38.201Z,2.67
2018-09-28T04:05:08.023Z,2.87
2018-09-28T04:07:38.007Z,2.90
2018-09-28T04:10:08.775Z,2.90
2018-09-28T04:12:40.401Z,2.63
2018-09-28T04:15:16.771Z,2.27
2018-09-28T04:17:46.470Z,2.90
2018-09-28T04:20:16.083Z,2.60
2018-09-28T04:22:46.816Z,3.20
2018-09-28T04:25:16.604Z,7.97
2018-09-28T04:27:46.870Z,6.60
2018-09-28T04:30:17.521Z,3.20
2018-09-28T04:32:47.185Z,3.00
2018-09-28T04:35:16.746Z,2.90
2018-09-28T04:37:47.868Z,2.83
2018-09-28T04:40:17.475Z,2.77
2018-09-28T04:42:46.999Z,2.60
2018-09-28T04:45:16.665Z,3.60
2018-09-28T04:47:46.163Z,3.03
2018-09-28T04:50:15.747Z,3.00
2018-09-28T04:52:45.344Z,2.20
2018-09-28T04:55:14.968Z,2.33
2018-09-28T04:57:44.605Z,2.37
2018-09-28T05:00:14.257Z,2.53
2018-09-28T05:02:44.103Z,2.90
2018-09-28T05:05:13.717Z,2.30
2018-09-28T05:07:43.357Z,2.33
2018-09-28T05:10:12.886Z,2.57
2018-09-28T05:12:42.464Z,2.83
2018-09-28T05:15:12.127Z,2.43
2018-09-28T05:17:41.767Z,2.37
2018-09-28T05:20:11.474Z,2.30
2018-09-28T05:22:41.230Z,2.60
2018-09-28T05:25:10.868Z,2.70
2018-09-28T05:27:40.498Z,3.30
2018-09-28T05:30:10.140Z,3.70
2018-09-28T05:32:40.005Z,2.70
2018-09-28T05:38:02.864Z,3.23
2018-09-28T05:40:38.967Z,2.90
2018-09-28T05:43:10.698Z,3.10
2018-09-28T05:45:40.936Z,2.40
2018-09-28T05:48:10.606Z,2.37
2018-09-28T05:50:40.321Z,2.50
2018-09-28T05:53:09.950Z,2.30
2018-09-28T05:55:39.677Z,2.70
2018-09-28T05:58:14.274Z,2.33
2018-09-28T06:00:49.094Z,2.50
2018-09-28T06:03:20.835Z,2.67
2018-09-28T06:05:59.421Z,2.30
2018-09-28T06:08:29.111Z,2.20
2018-09-28T06:10:58.723Z,2.50
2018-09-28T06:13:28.341Z,2.20
2018-09-28T06:15:57.991Z,2.33
2018-09-28T06:18:27.635Z,2.30
2018-09-28T06:20:57.219Z,2.20
2018-09-28T06:23:26.852Z,2.10
2018-09-28T06:25:56.569Z,2.57
2018-09-28T06:28:26.239Z,2.45
2018-09-28T06:30:55.830Z,2.60
2018-09-28T06:33:25.398Z,3.50
2018-09-28T06:35:55.047Z,2.30
2018-09-28T06:38:24.594Z,2.30
2018-09-28T06:40:54.240Z,2.70
2018-09-28T06:43:23.877Z,2.60
2018-09-28T06:45:53.852Z,2.60
2018-09-28T06:48:23.601Z,2.10
2018-09-28T06:50:53.258Z,2.60
2018-09-28T06:53:22.803Z,2.30
2018-09-28T06:55:52.488Z,2.20
2018-09-28T06:58:22.340Z,2.10
2018-09-28T07:00:51.946Z,2.33
2018-09-28T07:03:21.594Z,2.03
2018-09-28T07:05:51.202Z,2.20
2018-09-28T07:08:20.809Z,2.33
2018-09-28T07:10:50.395Z,2.20
2018-09-28T07:13:19.977Z,2.03
2018-09-28T07:15:49.567Z,2.67
2018-09-28T07:18:21.747Z,2.35
2018-09-28T07:20:51.343Z,2.33
2018-09-28T07:23:20.966Z,2.40
2018-09-28T07:25:50.668Z,2.35
2018-09-28T07:28:22.530Z,2.27
2018-09-28T07:30:52.227Z,2.23
2018-09-28T07:33:22.234Z,2.27
2018-09-28T07:35:51.997Z,2.20
2018-09-28T07:38:22.950Z,2.07
2018-09-28T07:40:52.741Z,2.20
2018-09-28T07:43:22.703Z,2.10
2018-09-28T07:45:52.280Z,2.22
2018-09-28T07:48:22.021Z,2.20
2018-09-28T07:50:51.701Z,2.10
2018-09-28T07:53:21.312Z,1.90
2018-09-28T07:55:50.877Z,2.10
2018-09-28T07:58:20.568Z,1.60
2018-09-28T08:00:50.202Z,2.00
2018-09-28T08:03:23.902Z,2.00
2018-09-28T08:05:53.549Z,1.90
2018-09-28T08:08:23.519Z,2.00
2018-09-28T08:10:53.142Z,2.00
2018-09-28T08:13:23.868Z,1.93
2018-09-28T08:15:53.487Z,1.85
2018-09-28T08:18:23.740Z,1.80
2018-09-28T08:20:53.516Z,1.73
2018-09-28T08:23:24.278Z,1.60
2018-09-28T08:25:53.938Z,1.67
2018-09-28T08:28:23.812Z,1.77
2018-09-28T08:30:53.549Z,1.80
2018-09-28T08:33:23.235Z,1.80
2018-09-28T08:35:52.981Z,1.50
2018-09-28T08:38:22.826Z,1.93
2018-09-28T08:41:00.477Z,2.00
2018-09-28T08:43:31.504Z,1.60
2018-09-28T08:46:01.319Z,1.93
2018-09-28T08:48:32.956Z,1.67
2018-09-28T08:51:03.473Z,1.90
2018-09-28T08:53:33.306Z,1.70
2018-09-28T08:56:02.907Z,1.50
2018-09-28T08:58:32.627Z,1.80
2018-09-28T09:01:02.431Z,2.40
2018-09-28T09:03:32.153Z,2.20
2018-09-28T09:06:01.908Z,1.70
2018-09-28T09:08:32.526Z,1.70
2018-09-28T09:11:02.204Z,2.73
2018-09-28T09:13:32.058Z,1.90
2018-09-28T09:16:02.649Z,1.70
2018-09-28T09:18:32.717Z,1.80
2018-09-28T09:21:02.681Z,1.60
2018-09-28T09:23:32.372Z,1.40
2018-09-28T09:26:02.180Z,1.60
2018-09-28T09:28:32.145Z,1.40
2018-09-28T09:31:01.907Z,1.50
2018-09-28T09:33:31.544Z,1.40
2018-09-28T09:36:01.134Z,1.43
2018-09-28T09:38:30.757Z,1.40
2018-09-28T09:41:01.103Z,1.43
2018-09-28T09:43:30.796Z,1.50
2018-09-28T09:46:00.965Z,1.43
2018-09-28T09:48:30.683Z,1.50
2018-09-28T09:51:01.171Z,1.93
2018-09-28T09:53:30.775Z,1.80
2018-09-28T09:56:00.496Z,1.60
2018-09-28T09:58:30.130Z,1.50
2018-09-28T10:01:07.121Z,1.70
2018-09-28T10:03:41.968Z,1.60
2018-09-28T10:06:11.602Z,1.60
2018-09-28T10:08:41.250Z,1.40
2018-09-28T10:11:10.922Z,1.50
2018-09-28T10:13:40.515Z,1.57
2018-09-28T10:16:10.331Z,1.60
2018-09-28T10:18:39.914Z,1.60
2018-09-28T10:21:09.492Z,1.80
2018-09-28T10:23:39.119Z,1.60
2018-09-28T10:26:08.782Z,1.80
2018-09-28T10:28:38.362Z,1.90
2018-09-28T10:31:07.987Z,1.70
2018-09-28T10:33:37.633Z,1.70
2018-09-28T10:36:07.352Z,1.50
2018-09-28T10:38:37.859Z,1.63
2018-09-28T10:41:07.696Z,1.50
2018-09-28T10:43:37.281Z,1.67
2018-09-28T10:46:06.918Z,1.47
2018-09-28T10:48:36.767Z,1.60
2018-09-28T10:51:06.858Z,2.00
2018-09-28T10:53:36.526Z,1.73
2018-09-28T10:56:06.187Z,1.27
2018-09-28T10:58:35.843Z,1.60
2018-09-28T11:01:05.466Z,1.40
2018-09-28T11:03:35.076Z,2.00
2018-09-28T11:06:04.737Z,2.00
2018-09-28T11:08:34.394Z,1.57
2018-09-28T11:11:04.003Z,1.77
2018-09-28T11:13:33.630Z,1.70
2018-09-28T11:16:03.305Z,1.80
2018-09-28T11:18:32.842Z,1.70
2018-09-28T11:21:02.459Z,1.83
2018-09-28T11:23:32.823Z,1.63
2018-09-28T11:26:02.507Z,1.60
2018-09-28T11:28:32.164Z,1.70
2018-09-28T11:31:01.798Z,1.52
2018-09-28T11:33:31.443Z,1.50
2018-09-28T11:36:01.286Z,2.00
2018-09-28T11:38:30.989Z,1.60
2018-09-28T11:41:00.681Z,1.80
2018-09-28T11:43:30.442Z,1.70
2018-09-28T11:46:00.101Z,1.70
2018-09-28T11:48:29.682Z,1.93
2018-09-28T11:50:59.401Z,2.85
2018-09-28T11:53:29.196Z,2.60
2018-09-28T11:55:58.942Z,3.22
2018-09-28T11:58:28.594Z,2.90
2018-09-28T12:00:58.282Z,3.50
2018-09-28T12:03:28.020Z,3.20
2018-09-28T12:05:57.753Z,3.47
2018-09-28T12:08:27.408Z,3.10
2018-09-28T12:10:57.156Z,2.53
2018-09-28T12:13:26.857Z,2.40
2018-09-28T12:15:56.573Z,2.77
2018-09-28T12:18:26.287Z,2.72
2018-09-28T12:20:55.947Z,2.47
2018-09-28T12:23:25.589Z,2.95
2018-09-28T12:25:55.267Z,2.20
2018-09-28T12:28:24.827Z,2.30
2018-09-28T12:30:54.403Z,2.37
2018-09-28T12:33:24.046Z,2.10
2018-09-28T12:35:53.780Z,2.00
2018-09-28T12:38:23.533Z,2.10
2018-09-28T12:40:53.118Z,2.10
2018-09-28T12:43:22.747Z,2.20
2018-09-28T12:45:52.352Z,1.90
2018-09-28T12:48:22.054Z,2.37
2018-09-28T12:50:51.689Z,1.95
2018-09-28T12:53:21.306Z,2.30
2018-09-28T12:55:50.942Z,2.17
2018-09-28T12:58:20.571Z,2.10
2018-09-28T13:00:50.309Z,1.82
2018-09-28T13:03:19.865Z,2.20
2018-09-28T13:05:49.464Z,2.00
2018-09-28T13:08:19.114Z,1.85
2018-09-28T13:10:48.979Z,2.20
2018-09-28T13:13:18.989Z,2.30
2018-09-28T13:15:48.837Z,2.20
2018-09-28T13:18:18.502Z,2.75
2018-09-28T13:20:48.250Z,1.90
2018-09-28T13:23:17.883Z,3.20
2018-09-28T13:25:47.429Z,3.02
2018-09-28T13:28:17.035Z,2.30
2018-09-28T13:30:46.686Z,2.60
2018-09-28T13:33:16.346Z,2.15
2018-09-28T13:35:45.896Z,2.47
2018-09-28T13:38:15.583Z,2.62
2018-09-28T13:40:46.754Z,2.45
2018-09-28T13:43:16.347Z,2.60
2018-09-28T13:45:46.162Z,2.33
2018-09-28T13:48:15.841Z,2.60
2018-09-28T13:50:47.672Z,2.87
2018-09-28T13:53:17.254Z,2.35
2018-09-28T13:55:46.825Z,2.20
2018-09-28T13:58:16.417Z,2.00
2018-09-28T14:00:46.092Z,2.35
2018-09-28T14:03:15.836Z,2.50
2018-09-28T14:05:45.508Z,2.67
2018-09-28T14:08:15.163Z,2.58
2018-09-28T14:10:44.775Z,2.55
2018-09-28T14:13:14.421Z,2.37
2018-09-28T14:15:44.107Z,1.98
2018-09-28T14:18:14.858Z,2.33
2018-09-28T14:20:44.596Z,2.62
2018-09-28T14:23:14.409Z,2.42
2018-09-28T14:25:43.962Z,2.55
2018-09-28T14:28:13.663Z,2.85
2018-09-28T14:30:43.471Z,2.17
2018-09-28T14:33:13.061Z,2.42
2018-09-28T14:35:42.633Z,2.08
2018-09-28T14:38:12.341Z,2.42
2018-09-28T14:40:42.012Z,2.37
2018-09-28T14:43:11.797Z,2.02
2018-09-28T14:45:41.429Z,2.30
2018-09-28T14:48:11.138Z,1.80
2018-09-28T14:50:40.727Z,2.20
2018-09-28T14:53:10.492Z,1.90
2018-09-28T14:55:40.177Z,1.87
2018-09-28T14:58:09.796Z,2.00
2018-09-28T15:00:39.491Z,1.70
2018-09-28T15:03:09.099Z,2.22
2018-09-28T15:05:38.592Z,2.42
2018-09-28T15:08:08.298Z,2.27
2018-09-28T15:10:37.956Z,2.20
2018-09-28T15:13:07.774Z,2.70
2018-09-28T15:15:37.445Z,2.00
2018-09-28T15:18:07.356Z,2.20
2018-09-28T15:20:37.057Z,2.00
2018-09-28T15:23:07.711Z,1.85
2018-09-28T15:25:37.262Z,1.85
2018-09-28T15:28:13.127Z,1.80
2018-09-28T15:30:42.776Z,12.00
2018-09-28T15:33:12.380Z,1.90
2018-09-28T15:35:41.989Z,2.05
2018-09-28T15:38:11.586Z,1.92
2018-09-28T15:40:41.199Z,2.27
2018-09-28T15:43:10.794Z,2.08
2018-09-28T15:45:40.361Z,1.90
2018-09-28T15:48:10.003Z,2.45
2018-09-28T15:50:39.636Z,3.10
2018-09-28T15:53:09.222Z,3.17
2018-09-28T15:55:38.790Z,3.60
2018-09-28T15:58:08.404Z,5.42
2018-09-28T16:00:38.042Z,5.05
2018-09-28T16:03:07.691Z,4.78
2018-09-28T16:05:37.294Z,4.60
2018-09-28T16:08:06.875Z,4.70
2018-09-28T16:10:36.785Z,4.55
2018-09-28T16:13:06.438Z,5.47
2018-09-28T16:15:35.964Z,7.13
2018-09-28T16:18:05.695Z,7.47
2018-09-28T16:20:35.428Z,7.30
2018-09-28T16:23:05.051Z,8.37
2018-09-28T16:25:34.605Z,8.13
2018-09-28T16:28:04.317Z,7.80
2018-09-28T16:30:33.895Z,8.33
2018-09-28T16:33:03.514Z,8.20
2018-09-28T16:35:33.306Z,8.80
2018-09-28T16:38:02.946Z,8.87
2018-09-28T16:40:32.549Z,9.20
2018-09-28T16:43:02.228Z,9.33
2018-09-28T16:45:31.816Z,9.53
2018-09-28T16:48:01.414Z,9.17
2018-09-28T16:50:31.089Z,8.67
2018-09-28T16:53:00.704Z,9.17
2018-09-28T16:55:30.380Z,9.90
2018-09-28T16:58:00.020Z,9.90
2018-09-28T17:00:29.618Z,10.27
2018-09-28T17:02:59.350Z,9.07
2018-09-28T17:05:28.973Z,8.33
2018-09-28T17:07:58.635Z,9.03
2018-09-28T17:10:28.241Z,8.03
2018-09-28T17:12:57.773Z,7.80
2018-09-28T17:15:27.418Z,8.30
2018-09-28T17:17:57.002Z,8.40
2018-09-28T17:20:26.634Z,8.43
2018-09-28T17:22:56.301Z,9.87
2018-09-28T17:25:25.910Z,11.77
2018-09-28T17:27:55.531Z,10.83
2018-09-28T17:30:25.138Z,11.53
2018-09-28T17:32:54.772Z,12.27
2018-09-28T17:35:24.302Z,11.20
2018-09-28T17:37:53.932Z,11.90
2018-09-28T17:40:23.656Z,11.03
2018-09-28T17:42:53.272Z,10.43
2018-09-28T17:45:26.438Z,9.13
2018-09-28T17:47:56.241Z,8.60
2018-09-28T17:50:25.838Z,8.07
2018-09-28T17:52:55.605Z,9.33
2018-09-28T17:55:25.211Z,10.17
2018-09-28T17:57:54.925Z,11.50
2018-09-28T18:00:24.561Z,11.07
2018-09-28T18:02:54.168Z,10.50
2018-09-28T18:05:23.784Z,10.67
2018-09-28T18:07:53.409Z,8.03
2018-09-28T18:10:23.081Z,7.67
2018-09-28T18:12:52.686Z,7.83
2018-09-28T18:15:22.294Z,6.97
2018-09-28T18:17:51.894Z,6.63
2018-09-28T18:20:21.625Z,5.87
2018-09-28T18:22:52.208Z,5.67
2018-09-28T18:25:21.805Z,5.23
2018-09-28T18:27:51.440Z,5.93
2018-09-28T18:30:21.138Z,6.17
2018-09-28T18:32:50.770Z,5.83
2018-09-28T18:35:20.377Z,4.97
2018-09-28T18:37:50.074Z,5.13
2018-09-28T18:40:19.687Z,4.50
2018-09-28T18:42:49.257Z,4.87
2018-09-28T18:45:18.908Z,5.10
2018-09-28T18:47:49.080Z,6.17
2018-09-28T18:50:18.730Z,5.23
2018-09-28T18:52:48.381Z,3.80
2018-09-28T18:55:18.109Z,4.20
2018-09-28T18:57:53.976Z,3.80
2018-09-28T19:00:23.625Z,3.20
2018-09-28T19:02:53.268Z,3.53
2018-09-28T19:05:22.906Z,3.67
2018-09-28T19:07:52.505Z,3.10
2018-09-28T19:10:22.252Z,3.00
2018-09-28T19:12:52.011Z,3.50
2018-09-28T19:15:21.613Z,3.50
2018-09-28T19:17:51.272Z,3.30
2018-09-28T19:20:24.541Z,3.37
2018-09-28T19:22:55.328Z,3.57
2018-09-28T19:25:26.754Z,3.40
2018-09-28T19:27:56.366Z,3.30
2018-09-28T19:30:27.322Z,3.13
2018-09-28T19:32:58.933Z,3.20
2018-09-28T19:35:28.936Z,2.80
2018-09-28T19:38:02.379Z,2.77
2018-09-28T19:40:32.116Z,2.97
2018-09-28T19:43:01.888Z,3.00
2018-09-28T19:45:31.651Z,3.70
2018-09-28T19:48:01.294Z,2.87
2018-09-28T19:50:30.987Z,2.83
2018-09-28T19:53:00.623Z,3.67
2018-09-28T19:55:30.281Z,3.03
2018-09-28T19:58:02.360Z,3.83
2018-09-28T20:00:32.314Z,3.70
2018-09-28T20:03:02.051Z,3.57
2018-09-28T20:05:31.675Z,3.70
2018-09-28T20:08:01.374Z,3.77
2018-09-28T20:10:31.019Z,3.50
2018-09-28T20:13:00.642Z,3.00
2018-09-28T20:15:30.326Z,2.87
2018-09-28T20:17:59.939Z,2.20
2018-09-28T20:20:29.587Z,2.07
2018-09-28T20:22:59.259Z,2.00
2018-09-28T20:25:28.935Z,2.17
2018-09-28T20:27:58.527Z,2.10
2018-09-28T20:30:28.169Z,2.00
2018-09-28T20:32:57.759Z,2.07
2018-09-28T20:35:27.394Z,2.20
2018-09-28T20:37:57.040Z,1.93
2018-09-28T20:40:26.657Z,2.03
2018-09-28T20:42:56.351Z,2.20
2018-09-28T20:45:25.929Z,1.83
2018-09-28T20:47:55.573Z,2.10
2018-09-28T20:50:25.352Z,2.03
2018-09-28T20:52:54.926Z,2.20
2018-09-28T20:55:24.623Z,2.17
2018-09-28T20:57:54.259Z,2.27
2018-09-28T21:00:23.864Z,2.17
2018-09-28T21:02:53.516Z,2.40
2018-09-28T21:05:23.091Z,1.97
2018-09-28T21:07:52.706Z,2.00
2018-09-28T21:10:22.361Z,2.20
2018-09-28T21:12:52.008Z,2.10
2018-09-28T21:15:21.611Z,2.20
2018-09-28T21:17:51.277Z,2.00
2018-09-28T21:20:21.001Z,2.30
2018-09-28T21:22:50.627Z,2.57
2018-09-28T21:25:20.326Z,2.40
2018-09-28T21:27:49.947Z,2.03
2018-09-28T21:30:19.558Z,2.47
2018-09-28T21:32:49.276Z,2.57
2018-09-28T21:35:18.881Z,2.30
2018-09-28T21:37:48.487Z,2.50
2018-09-28T21:40:18.136Z,2.30
2018-09-28T21:42:47.818Z,2.30
2018-09-28T21:45:17.482Z,2.20
2018-09-28T21:47:47.027Z,2.37
2018-09-28T21:50:16.659Z,2.30
2018-09-28T21:52:46.288Z,2.10
2018-09-28T21:55:15.981Z,2.23
2018-09-28T21:57:45.625Z,2.20
2018-09-28T22:00:15.326Z,2.10
2018-09-28T22:02:44.916Z,2.30
2018-09-28T22:05:14.546Z,2.23
2018-09-28T22:07:44.158Z,2.30
2018-09-28T22:10:13.828Z,2.37
2018-09-28T22:12:43.461Z,2.80
2018-09-28T22:15:13.113Z,2.50
2018-09-28T22:17:42.717Z,2.40
2018-09-28T22:20:12.324Z,2.50
2018-09-28T22:22:41.890Z,2.40
2018-09-28T22:25:11.527Z,2.33
2018-09-28T22:27:41.142Z,2.50
2018-09-28T22:30:10.833Z,2.40
2018-09-28T22:32:40.426Z,2.50
2018-09-28T22:35:10.016Z,2.20
2018-09-28T22:37:39.595Z,2.73
2018-09-28T22:40:09.260Z,2.43
2018-09-28T22:42:38.799Z,2.60
2018-09-28T22:45:08.433Z,2.10
2018-09-28T22:47:38.080Z,3.10
2018-09-28T22:50:07.712Z,2.60
2018-09-28T22:52:37.337Z,2.47
2018-09-28T22:55:07.243Z,2.73
2018-09-28T22:57:37.267Z,2.80
2018-09-28T23:00:06.885Z,2.90
2018-09-28T23:02:36.489Z,2.53
2018-09-28T23:05:06.303Z,2.60
2018-09-28T23:07:35.915Z,2.80
2018-09-28T23:10:05.559Z,2.60
2018-09-28T23:12:35.168Z,3.00
2018-09-28T23:15:04.849Z,2.70
2018-09-28T23:17:34.473Z,3.13
2018-09-28T23:20:04.145Z,3.00
2018-09-28T23:22:33.735Z,2.80
2018-09-28T23:25:03.365Z,2.80
2018-09-28T23:27:32.951Z,2.97
2018-09-28T23:30:02.681Z,2.90
2018-09-28T23:32:32.300Z,2.73
2018-09-28T23:35:01.916Z,2.70
2018-09-28T23:37:31.490Z,2.73
2018-09-28T23:40:01.129Z,2.40
2018-09-28T23:42:30.690Z,2.63
2018-09-28T23:45:00.283Z,2.60
2018-09-28T23:47:29.942Z,2.63
2018-09-28T23:49:59.560Z,2.50
2018-09-28T23:52:29.177Z,2.37
2018-09-28T23:54:58.730Z,2.40
2018-09-28T23:57:28.311Z,2.47
2018-09-28T23:59:57.951Z,2.30
